createdAt,value
2023-03-21T00:01:51.993Z,99.97
2023-03-21T00:04:23.935Z,100.00
2023-03-21T00:06:50.533Z,100.00
2023-03-21T00:09:17.455Z,100.00
2023-03-21T00:11:45.206Z,100.00
2023-03-21T00:14:15.535Z,100.00
2023-03-21T00:16:45.273Z,100.00
2023-03-21T00:19:13.811Z,100.00
2023-03-21T00:21:59.623Z,100.00
2023-03-21T00:24:29.412Z,100.00
2023-03-21T00:33:22.762Z,100.00
2023-03-21T00:35:58.757Z,100.00
2023-03-21T00:38:31.506Z,100.00
2023-03-21T00:41:04.629Z,100.00
2023-03-21T00:43:41.731Z,100.00
2023-03-21T00:46:09.122Z,100.00
2023-03-21T00:48:36.592Z,100.00
2023-03-21T00:51:15.713Z,100.00
2023-03-21T00:53:43.059Z,100.00
2023-03-21T00:56:10.793Z,100.00
2023-03-21T00:58:39.953Z,100.00
2023-03-21T01:01:09.521Z,100.00
2023-03-21T01:03:43.011Z,100.00
2023-03-21T01:06:13.820Z,100.00
2023-03-21T01:08:57.821Z,100.00
2023-03-21T01:11:27.033Z,100.00
2023-03-21T01:14:10.972Z,100.00
2023-03-21T01:16:44.164Z,100.00
2023-03-21T01:19:25.010Z,100.00
2023-03-21T01:21:54.062Z,100.00
2023-03-21T01:24:21.211Z,100.00
2023-03-21T01:26:48.683Z,100.00
2023-03-21T01:29:15.921Z,100.00
2023-03-21T01:31:43.463Z,100.00
2023-03-21T01:34:10.942Z,100.00
2023-03-21T01:36:57.779Z,100.00
2023-03-21T01:39:25.333Z,100.00
2023-03-21T01:41:52.864Z,100.00
2023-03-21T01:44:25.778Z,100.00
2023-03-21T01:47:09.719Z,100.00
2023-03-21T01:49:49.880Z,100.00
2023-03-21T01:52:36.459Z,100.00
2023-03-21T01:55:12.091Z,100.00
2023-03-21T01:58:07.271Z,100.00
2023-03-21T02:00:46.869Z,100.00
2023-03-21T02:03:35.431Z,100.00
2023-03-21T02:06:47.024Z,100.00
2023-03-21T02:09:37.396Z,100.00
2023-03-21T02:12:07.406Z,100.00
2023-03-21T02:14:36.306Z,100.00
2023-03-21T02:17:39.419Z,100.00
2023-03-21T02:20:11.978Z,100.00
2023-03-21T02:22:44.336Z,100.00
2023-03-21T02:25:22.112Z,100.00
2023-03-21T02:28:02.427Z,100.00
2023-03-21T02:30:51.217Z,100.00
2023-03-21T02:33:26.115Z,100.00
2023-03-21T02:36:18.048Z,100.00
2023-03-21T02:38:54.729Z,100.00
2023-03-21T02:41:46.409Z,100.00
2023-03-21T02:44:19.612Z,100.00
2023-03-21T02:47:06.274Z,100.00
2023-03-21T02:50:09.488Z,99.96
2023-03-21T02:52:39.715Z,99.90
2023-03-21T02:55:15.710Z,99.67
2023-03-21T02:57:57.071Z,99.31
2023-03-21T03:00:27.429Z,99.06
2023-03-21T03:03:08.157Z,98.89
2023-03-21T03:05:38.078Z,98.66
2023-03-21T03:08:26.620Z,98.39
2023-03-21T03:11:24.619Z,98.45
2023-03-21T03:14:36.998Z,98.56
2023-03-21T03:17:37.446Z,98.54
2023-03-21T03:20:27.299Z,98.29
2023-03-21T03:23:47.310Z,98.11
2023-03-21T03:26:39.955Z,97.88
2023-03-21T03:29:12.378Z,97.82
2023-03-21T03:31:44.517Z,97.96
2023-03-21T03:34:16.933Z,97.77
2023-03-21T03:36:47.913Z,97.66
2023-03-21T03:39:16.630Z,97.50
2023-03-21T03:42:18.288Z,97.44
2023-03-21T03:44:50.516Z,97.26
2023-03-21T03:47:41.945Z,97.11
2023-03-21T03:50:24.072Z,96.98
2023-03-21T03:52:57.388Z,96.76
2023-03-21T03:55:34.819Z,96.63
2023-03-21T03:58:21.734Z,96.63
2023-03-21T04:00:52.464Z,96.28
2023-03-21T04:03:24.478Z,96.27
2023-03-21T04:05:52.920Z,96.26
2023-03-21T04:08:20.071Z,96.20
2023-03-21T04:10:51.693Z,96.04
2023-03-21T04:13:19.380Z,95.89
2023-03-21T04:16:10.122Z,95.62
2023-03-21T04:18:39.379Z,95.48
2023-03-21T04:21:13.380Z,95.44
2023-03-21T04:23:41.585Z,95.37
2023-03-21T04:26:09.025Z,95.35
2023-03-21T04:28:39.964Z,95.24
2023-03-21T04:31:28.721Z,95.14
2023-03-21T04:34:09.913Z,95.32
2023-03-21T04:36:46.792Z,95.38
2023-03-21T04:39:15.459Z,95.22
2023-03-21T04:41:44.827Z,94.81
2023-03-21T04:44:13.117Z,94.42
2023-03-21T04:46:40.697Z,94.30
2023-03-21T04:49:08.166Z,94.36
2023-03-21T04:51:35.948Z,94.30
2023-03-21T04:54:06.065Z,94.19
2023-03-21T04:56:38.323Z,95.08
2023-03-21T04:59:13.651Z,95.62
2023-03-21T05:01:41.431Z,96.05
2023-03-21T05:04:09.596Z,96.49
2023-03-21T05:06:37.778Z,97.05
2023-03-21T05:09:08.707Z,97.85
2023-03-21T05:11:40.424Z,98.27
2023-03-21T05:14:14.166Z,98.95
2023-03-21T05:16:45.202Z,99.18
2023-03-21T05:19:14.097Z,99.47
2023-03-21T05:21:42.484Z,99.72
2023-03-21T05:24:22.018Z,99.84
2023-03-21T05:26:52.699Z,99.97
2023-03-21T05:29:22.733Z,99.99
2023-03-21T05:31:57.184Z,100.00
2023-03-21T05:34:24.324Z,100.00
2023-03-21T05:36:56.754Z,99.96
2023-03-21T05:39:25.994Z,99.94
2023-03-21T05:42:00.843Z,99.98
2023-03-21T05:44:27.995Z,100.00
2023-03-21T05:46:59.790Z,100.00
2023-03-21T05:49:32.523Z,100.00
2023-03-21T05:52:01.002Z,100.00
2023-03-21T05:54:27.931Z,100.00
2023-03-21T05:56:55.315Z,99.99
2023-03-21T05:59:43.855Z,100.00
2023-03-21T06:02:11.716Z,100.00
2023-03-21T06:04:39.492Z,100.00
2023-03-21T06:07:12.011Z,100.00
2023-03-21T06:09:56.137Z,100.00
2023-03-21T06:12:23.203Z,100.00
2023-03-21T06:15:16.007Z,100.00
2023-03-21T06:17:53.953Z,100.00
2023-03-21T06:20:21.007Z,100.00
2023-03-21T06:22:56.590Z,99.60
2023-03-21T06:25:24.119Z,99.75
2023-03-21T06:27:51.555Z,99.74
2023-03-21T06:30:19.220Z,99.79
2023-03-21T06:32:56.283Z,99.73
2023-03-21T06:35:23.561Z,99.74
2023-03-21T06:37:52.467Z,99.67
2023-03-21T06:40:19.852Z,99.93
2023-03-21T06:42:46.849Z,100.00
2023-03-21T06:45:14.023Z,100.00
2023-03-21T06:47:42.786Z,99.72
2023-03-21T06:50:19.772Z,98.62
2023-03-21T06:52:48.593Z,98.20
2023-03-21T06:55:16.446Z,97.73
2023-03-21T06:57:47.956Z,97.49
2023-03-21T07:00:15.534Z,97.53
2023-03-21T07:02:55.968Z,96.99
2023-03-21T07:05:26.581Z,96.74
2023-03-21T07:07:53.492Z,96.18
2023-03-21T07:10:25.637Z,95.58
2023-03-21T07:13:00.294Z,95.20
2023-03-21T07:15:38.315Z,95.08
2023-03-21T07:18:06.355Z,95.09
2023-03-21T07:20:34.982Z,95.08
2023-03-21T07:23:01.996Z,94.81
2023-03-21T07:25:30.252Z,94.45
2023-03-21T07:27:57.203Z,93.54
2023-03-21T07:30:24.175Z,92.44
2023-03-21T07:32:51.133Z,91.21
2023-03-21T07:35:18.347Z,90.59
2023-03-21T07:37:49.009Z,90.66
2023-03-21T07:40:16.995Z,90.47
2023-03-21T07:42:44.338Z,89.56
2023-03-21T07:45:21.435Z,88.88
2023-03-21T07:47:49.447Z,88.01
2023-03-21T07:50:16.521Z,87.71
2023-03-21T07:52:46.542Z,87.78
2023-03-21T07:55:13.875Z,87.91
2023-03-21T07:57:41.729Z,88.52
2023-03-21T08:00:09.260Z,88.73
2023-03-21T08:02:43.895Z,88.70
2023-03-21T08:05:11.941Z,88.53
2023-03-21T08:07:39.185Z,88.64
2023-03-21T08:10:06.852Z,88.73
2023-03-21T08:12:35.548Z,88.71
2023-03-21T08:15:03.591Z,88.40
2023-03-21T08:17:30.826Z,88.24
2023-03-21T08:19:58.050Z,87.52
2023-03-21T08:22:25.558Z,86.54
2023-03-21T08:24:52.831Z,86.46
2023-03-21T08:27:20.901Z,86.51
2023-03-21T08:29:47.797Z,86.34
2023-03-21T08:32:14.844Z,85.92
2023-03-21T08:34:42.840Z,84.85
2023-03-21T08:37:09.876Z,83.61
2023-03-21T08:39:37.019Z,83.82
2023-03-21T08:42:06.435Z,83.60
2023-03-21T08:44:34.145Z,83.77
2023-03-21T08:47:01.597Z,82.10
2023-03-21T08:49:28.537Z,80.84
2023-03-21T08:51:56.474Z,80.74
2023-03-21T08:54:23.456Z,81.02
2023-03-21T08:56:51.533Z,80.92
2023-03-21T08:59:18.752Z,80.24
2023-03-21T09:01:46.969Z,80.29
2023-03-21T09:04:14.004Z,80.03
2023-03-21T09:06:49.192Z,80.05
2023-03-21T09:09:16.660Z,80.01
2023-03-21T09:11:43.828Z,80.30
2023-03-21T09:14:12.532Z,78.29
2023-03-21T09:16:39.586Z,77.32
2023-03-21T09:19:08.787Z,76.74
2023-03-21T09:21:42.497Z,76.88
2023-03-21T09:24:09.875Z,75.70
2023-03-21T09:26:41.765Z,74.23
2023-03-21T09:29:09.055Z,74.52
2023-03-21T09:31:36.071Z,73.73
2023-03-21T09:34:04.101Z,74.07
2023-03-21T09:36:32.322Z,74.62
2023-03-21T09:39:04.078Z,74.71
2023-03-21T09:41:40.649Z,74.02
2023-03-21T09:44:26.360Z,72.65
2023-03-21T09:47:25.401Z,71.60
2023-03-21T09:50:07.502Z,70.54
2023-03-21T09:53:16.687Z,70.68
2023-03-21T09:55:44.647Z,69.47
2023-03-21T09:58:31.117Z,68.96
2023-03-21T10:01:07.594Z,68.29
2023-03-21T10:03:35.256Z,68.29
2023-03-21T10:06:11.387Z,67.55
2023-03-21T10:08:41.347Z,67.01
2023-03-21T10:11:21.695Z,64.88
2023-03-21T10:13:51.148Z,62.40
2023-03-21T10:16:38.008Z,58.67
2023-03-21T10:19:10.730Z,60.22
2023-03-21T10:21:59.837Z,61.81
2023-03-21T10:24:28.348Z,61.95
2023-03-21T10:26:55.428Z,62.94
2023-03-21T10:29:28.338Z,63.17
2023-03-21T10:31:55.906Z,63.19
2023-03-21T10:34:32.374Z,63.53
2023-03-21T10:37:00.621Z,62.81
2023-03-21T10:39:37.992Z,62.65
2023-03-21T10:42:05.975Z,62.28
2023-03-21T10:44:34.835Z,61.68
2023-03-21T10:47:09.348Z,61.73
2023-03-21T10:49:56.428Z,61.62
2023-03-21T10:55:32.337Z,61.59
2023-03-21T10:58:11.207Z,61.67
2023-03-21T11:00:39.608Z,62.07
2023-03-21T11:03:07.597Z,62.30
2023-03-21T11:05:40.508Z,62.34
2023-03-21T11:08:11.979Z,60.46
2023-03-21T11:10:54.233Z,59.93
2023-03-21T11:13:28.052Z,59.99
2023-03-21T11:16:04.511Z,60.13
2023-03-21T11:18:34.268Z,61.26
2023-03-21T11:21:06.531Z,61.51
2023-03-21T11:23:34.301Z,61.79
2023-03-21T11:34:04.732Z,61.82
2023-03-21T11:36:38.336Z,61.47
2023-03-21T11:39:10.992Z,62.42
2023-03-21T11:41:39.599Z,63.38
2023-03-21T11:44:09.748Z,64.33
2023-03-21T11:46:40.079Z,65.08
2023-03-21T11:49:08.445Z,65.68
2023-03-21T11:51:45.419Z,66.09
2023-03-21T11:54:17.396Z,66.34
2023-03-21T11:56:51.827Z,65.83
2023-03-21T11:59:27.806Z,66.18
2023-03-21T12:02:34.392Z,65.78
2023-03-21T12:05:21.129Z,65.86
2023-03-21T12:08:10.808Z,65.73
2023-03-21T12:10:46.560Z,66.21
2023-03-21T12:13:35.887Z,66.46
2023-03-21T12:16:21.915Z,66.02
2023-03-21T12:19:19.469Z,65.68
2023-03-21T12:22:30.756Z,65.86
2023-03-21T12:24:58.293Z,66.10
2023-03-21T12:27:43.602Z,66.14
2023-03-21T12:30:24.121Z,66.46
2023-03-21T12:32:57.588Z,66.74
2023-03-21T12:35:36.429Z,67.34
2023-03-21T12:38:19.909Z,67.62
2023-03-21T12:41:15.919Z,68.05
2023-03-21T12:43:42.510Z,68.31
2023-03-21T12:46:31.438Z,68.65
2023-03-21T12:49:17.214Z,68.76
2023-03-21T12:51:50.545Z,68.86
2023-03-21T12:54:27.820Z,69.04
2023-03-21T12:56:54.991Z,69.16
2023-03-21T12:59:30.908Z,69.35
2023-03-21T13:02:04.929Z,69.54
2023-03-21T13:04:42.091Z,69.56
2023-03-21T13:07:11.086Z,69.44
2023-03-21T13:09:41.071Z,69.45
2023-03-21T13:12:32.526Z,69.49
2023-03-21T13:15:24.677Z,69.57
2023-03-21T13:18:19.358Z,69.90
2023-03-21T13:20:52.960Z,70.15
2023-03-21T13:23:24.730Z,70.09
2023-03-21T13:25:54.016Z,69.88
2023-03-21T13:28:27.527Z,69.65
2023-03-21T13:30:53.986Z,69.82
2023-03-21T13:33:24.095Z,69.57
2023-03-21T13:36:05.669Z,69.29
2023-03-21T13:38:33.821Z,68.84
2023-03-21T13:49:10.129Z,69.02
2023-03-21T13:51:37.561Z,69.13
2023-03-21T13:54:06.921Z,69.40
2023-03-21T14:03:13.265Z,69.78
2023-03-21T14:05:40.946Z,69.90
2023-03-21T14:08:15.644Z,69.68
2023-03-21T14:10:46.751Z,69.61
2023-03-21T14:13:19.000Z,69.72
2023-03-21T14:15:56.422Z,69.99
2023-03-21T14:18:35.296Z,70.17
2023-03-21T14:21:23.807Z,70.17
2023-03-21T14:24:05.029Z,69.79
2023-03-21T14:26:33.520Z,69.63
2023-03-21T14:29:02.762Z,69.47
2023-03-21T14:31:31.442Z,69.52
2023-03-21T14:33:58.240Z,69.78
2023-03-21T14:36:27.196Z,69.96
2023-03-21T14:39:15.226Z,69.91
2023-03-21T14:41:49.454Z,70.10
2023-03-21T14:44:27.323Z,70.28
2023-03-21T14:47:03.927Z,70.30
2023-03-21T14:49:32.376Z,70.27
2023-03-21T14:52:06.828Z,70.35
2023-03-21T14:54:33.362Z,70.57
2023-03-21T14:57:02.170Z,70.55
2023-03-21T14:59:32.838Z,70.53
2023-03-21T15:02:02.193Z,70.61
2023-03-21T15:04:29.390Z,70.55
2023-03-21T15:06:59.003Z,70.59
2023-03-21T15:09:26.723Z,70.67
2023-03-21T15:11:57.962Z,70.83
2023-03-21T15:14:27.553Z,70.92
2023-03-21T15:16:54.673Z,71.26
2023-03-21T15:19:30.761Z,71.53
2023-03-21T15:22:07.504Z,71.72
2023-03-21T15:24:38.461Z,71.89
2023-03-21T15:27:16.796Z,71.99
2023-03-21T15:29:44.532Z,72.16
2023-03-21T15:32:17.189Z,72.34
2023-03-21T15:34:44.981Z,72.45
2023-03-21T15:37:22.294Z,72.65
2023-03-21T15:39:51.951Z,72.77
2023-03-21T15:42:34.302Z,72.89
2023-03-21T15:45:01.540Z,73.00
2023-03-21T15:47:53.887Z,73.10
2023-03-21T15:50:23.351Z,73.38
2023-03-21T15:52:50.925Z,73.31
2023-03-21T15:56:01.270Z,73.20
2023-03-21T15:58:40.148Z,73.22
2023-03-21T16:01:12.644Z,73.32
2023-03-21T16:10:51.436Z,73.03
2023-03-21T16:13:19.615Z,73.17
2023-03-21T16:15:47.230Z,73.41
2023-03-21T16:18:21.496Z,73.49
2023-03-21T16:20:50.385Z,73.51
2023-03-21T16:23:17.552Z,73.62
2023-03-21T16:25:56.101Z,73.59
2023-03-21T16:28:24.643Z,73.64
2023-03-21T16:30:51.960Z,73.74
2023-03-21T16:33:19.140Z,73.91
2023-03-21T16:36:02.932Z,73.96
2023-03-21T16:38:31.038Z,74.04
2023-03-21T16:41:01.153Z,74.05
2023-03-21T16:43:28.630Z,74.08
2023-03-21T16:45:58.157Z,74.24
2023-03-21T16:48:25.716Z,74.28
2023-03-21T16:50:54.076Z,74.43
2023-03-21T16:53:21.330Z,74.55
2023-03-21T16:55:48.977Z,74.76
2023-03-21T16:58:21.956Z,74.82
2023-03-21T17:00:49.112Z,74.76
2023-03-21T17:03:19.578Z,74.74
2023-03-21T17:05:49.255Z,74.76
2023-03-21T17:08:18.211Z,74.94
2023-03-21T17:10:45.734Z,75.25
2023-03-21T17:13:12.888Z,75.34
2023-03-21T17:15:41.765Z,75.36
2023-03-21T17:18:10.587Z,75.39
2023-03-21T17:20:40.600Z,75.43
2023-03-21T17:23:10.431Z,75.62
2023-03-21T17:25:37.514Z,75.88
2023-03-21T17:28:04.867Z,75.85
2023-03-21T17:30:34.981Z,75.84
2023-03-21T17:33:04.350Z,75.88
2023-03-21T17:35:31.703Z,75.89
2023-03-21T17:37:59.743Z,75.91
2023-03-21T17:40:29.120Z,75.89
2023-03-21T17:42:56.462Z,75.92
2023-03-21T17:45:23.862Z,75.95
2023-03-21T17:47:51.310Z,75.84
2023-03-21T17:50:23.434Z,75.82
2023-03-21T17:52:51.947Z,75.90
2023-03-21T17:55:24.324Z,75.94
2023-03-21T17:57:51.649Z,76.09
2023-03-21T18:00:23.866Z,76.21
2023-03-21T18:02:54.546Z,76.29
2023-03-21T18:05:22.644Z,76.37
2023-03-21T18:10:41.169Z,76.95
2023-03-21T18:13:08.749Z,77.19
2023-03-21T18:15:44.819Z,77.21
2023-03-21T18:18:14.198Z,77.30
2023-03-21T18:20:51.776Z,77.34
2023-03-21T18:23:19.933Z,77.43
2023-03-21T18:25:47.237Z,77.54
2023-03-21T18:28:25.667Z,77.71
2023-03-21T18:31:14.290Z,77.82
2023-03-21T18:33:41.066Z,77.83
2023-03-21T18:36:09.640Z,78.00
2023-03-21T18:38:37.301Z,78.06
2023-03-21T18:41:09.177Z,77.88
2023-03-21T18:46:26.135Z,77.76
2023-03-21T18:48:53.435Z,77.77
2023-03-21T18:51:20.471Z,77.59
2023-03-21T18:53:47.869Z,77.56
2023-03-21T18:56:57.776Z,77.57
2023-03-21T18:59:05.277Z,77.67
2023-03-21T19:01:33.223Z,77.65
2023-03-21T19:04:20.386Z,77.73
2023-03-21T19:06:48.423Z,77.86
2023-03-21T19:09:17.944Z,77.79
2023-03-21T19:11:45.884Z,77.94
2023-03-21T19:14:15.280Z,77.99
2023-03-21T19:17:12.123Z,78.01
2023-03-21T19:19:31.406Z,77.95
2023-03-21T19:21:59.949Z,78.00
2023-03-21T19:24:29.173Z,77.86
2023-03-21T19:26:58.913Z,77.91
2023-03-21T19:29:26.486Z,77.95
2023-03-21T19:31:54.010Z,78.05
2023-03-21T19:34:21.576Z,78.06
2023-03-21T19:36:52.024Z,78.32
2023-03-21T19:39:22.842Z,78.51
2023-03-21T19:41:51.246Z,78.78
2023-03-21T19:44:19.713Z,78.85
2023-03-21T19:46:48.691Z,78.87
2023-03-21T19:49:20.263Z,79.04
2023-03-21T19:51:49.246Z,79.21
2023-03-21T19:54:18.748Z,79.48
2023-03-21T19:56:48.059Z,79.58
2023-03-21T19:59:15.604Z,79.53
2023-03-21T20:01:46.052Z,79.68
2023-03-21T20:04:14.844Z,79.96
2023-03-21T20:06:44.087Z,79.98
2023-03-21T20:12:05.966Z,80.45
2023-03-21T20:14:33.366Z,80.70
2023-03-21T20:17:00.557Z,81.24
2023-03-21T20:19:29.373Z,81.74
2023-03-21T20:22:00.611Z,81.99
2023-03-21T20:24:36.694Z,82.08
2023-03-21T20:27:04.646Z,82.06
2023-03-21T20:32:21.518Z,82.29
2023-03-21T20:34:49.694Z,82.17
2023-03-21T20:47:06.709Z,82.58
2023-03-21T20:49:36.117Z,82.76
2023-03-21T20:54:55.145Z,82.43
2023-03-21T20:57:25.766Z,82.46
2023-03-21T20:59:57.712Z,82.64
2023-03-21T21:02:25.808Z,82.88
2023-03-21T21:05:23.713Z,82.73
2023-03-21T21:07:42.764Z,82.71
2023-03-21T21:10:11.521Z,82.85
2023-03-21T21:12:39.615Z,83.18
2023-03-21T21:15:08.439Z,83.60
2023-03-21T21:20:24.320Z,84.42
2023-03-21T21:22:59.503Z,84.33
2023-03-21T21:25:29.151Z,84.25
2023-03-21T21:27:56.463Z,84.44
2023-03-21T21:30:23.701Z,85.10
2023-03-21T21:32:51.665Z,85.47
2023-03-21T21:35:20.738Z,85.81
2023-03-21T21:37:48.992Z,86.31
2023-03-21T21:40:20.679Z,86.23
2023-03-21T21:42:52.037Z,86.13
2023-03-21T21:45:20.325Z,86.00
2023-03-21T21:47:47.447Z,85.59
2023-03-21T21:50:15.593Z,85.45
2023-03-21T21:52:44.019Z,85.53
2023-03-21T21:55:13.296Z,85.75
2023-03-21T21:57:41.017Z,85.96
2023-03-21T22:00:13.722Z,86.06
2023-03-21T22:02:41.564Z,86.32
2023-03-21T22:05:09.330Z,86.26
2023-03-21T22:07:41.223Z,86.18
2023-03-21T22:10:08.795Z,86.11
2023-03-21T22:12:36.207Z,86.39
2023-03-21T22:15:10.810Z,86.79
2023-03-21T22:17:38.868Z,87.03
2023-03-21T22:20:06.971Z,86.93
2023-03-21T22:22:38.073Z,86.69
2023-03-21T22:25:06.960Z,86.69
2023-03-21T22:27:34.286Z,86.88
2023-03-21T22:30:05.890Z,86.99
2023-03-21T22:32:35.161Z,87.30
2023-03-21T22:35:04.936Z,87.39
2023-03-21T22:37:33.042Z,87.50
2023-03-21T22:40:00.292Z,87.76
2023-03-21T22:42:27.421Z,88.08
2023-03-21T22:44:54.837Z,88.29
2023-03-21T22:47:21.779Z,88.54
2023-03-21T22:49:48.859Z,88.67
2023-03-21T22:52:16.057Z,88.76
2023-03-21T22:54:43.259Z,88.83
2023-03-21T22:57:10.110Z,89.00
2023-03-21T22:59:37.306Z,89.55
2023-03-21T23:02:04.292Z,89.76
2023-03-21T23:04:32.411Z,89.81
2023-03-21T23:06:59.345Z,89.58
2023-03-21T23:09:27.403Z,89.52
2023-03-21T23:14:06.760Z,89.92
2023-03-21T23:16:38.585Z,90.42
2023-03-21T23:19:05.997Z,90.66
2023-03-21T23:21:34.717Z,90.72
2023-03-21T23:24:02.148Z,91.03
2023-03-21T23:26:29.694Z,91.37
2023-03-21T23:28:59.011Z,91.97
2023-03-21T23:31:27.032Z,92.52
2023-03-21T23:33:54.665Z,92.58
2023-03-21T23:36:23.822Z,92.53
2023-03-21T23:38:51.082Z,92.40
2023-03-21T23:41:21.328Z,92.76
2023-03-21T23:43:49.201Z,93.53
2023-03-21T23:46:16.909Z,93.94
2023-03-21T23:48:45.510Z,94.11
2023-03-21T23:51:13.534Z,94.33
2023-03-21T23:53:45.664Z,94.44
2023-03-21T23:56:18.234Z,94.20
2023-03-21T23:58:47.182Z,94.29
